Time;durP1;ratioP1;P1;durP2;ratioP2;P2;SDS_P1;SDS_P2;PMS_P1;PMS_P2;Temp;Humidity;BMP_temperature;BMP_pressure;BME280_temperature;BME280_humidity;BME280_pressure;Samples;Min_cycle;Max_cycle;Signal;HPM_P1;HPM_P2
2022/04/15 00:00:54;;;;;;;5.7;3.3;;;;;;;13.68;69.64844;941.7133;;;;
2022/04/15 00:03:19;;;;;;;8.2;4.5;;;;;;;13.65;70.80469;941.7339;;;;
2022/04/15 00:05:45;;;;;;;6.9;3.6;;;;;;;13.51;70.99902;941.7763;;;;
2022/04/15 00:08:10;;;;;;;6.5;3.4;;;;;;;13.36;71.20508;941.6987;;;;
2022/04/15 00:10:39;;;;;;;8.9;3.8;;;;;;;13.28;71.19238;941.8039;;;;
2022/04/15 00:13:03;;;;;;;6;3.3;;;;;;;13.21;71.70898;941.7753;;;;
2022/04/15 00:15:31;;;;;;;7.6;3.6;;;;;;;13.16;71.7002;941.7508;;;;
2022/04/15 00:17:56;;;;;;;7.3;3.6;;;;;;;13.08;72.18164;941.7927;;;;
2022/04/15 00:20:24;;;;;;;10.9;3.8;;;;;;;12.97;72.54297;941.7853;;;;
2022/04/15 00:22:49;;;;;;;10.4;4.4;;;;;;;12.86;73.09668;941.8367;;;;
2022/04/15 00:25:16;;;;;;;7.4;4.2;;;;;;;12.83;73.21875;941.8053;;;;
2022/04/15 00:27:41;;;;;;;6;3.4;;;;;;;12.69;74.11426;941.7626;;;;
2022/04/15 00:30:08;;;;;;;8.4;3.5;;;;;;;12.71;73.81836;941.7747;;;;
2022/04/15 00:32:33;;;;;;;6.3;3.7;;;;;;;12.66;73.93555;941.6936;;;;
2022/04/15 00:35:00;;;;;;;5.8;3.5;;;;;;;12.6;74.0166;941.6649;;;;
2022/04/15 00:37:25;;;;;;;4.6;3.2;;;;;;;12.48;74.26074;941.7288;;;;
2022/04/15 00:39:51;;;;;;;6.2;3.3;;;;;;;12.58;73.57813;941.7559;;;;
2022/04/15 00:42:16;;;;;;;4.9;3.2;;;;;;;12.62;73.41309;941.8052;;;;
2022/04/15 00:45:23;;;;;;;5;3.6;;;;;;;12.67;73.3418;941.7392;;;;
2022/04/15 00:47:51;;;;;;;7.4;3.7;;;;;;;12.46;73.26172;941.7103;;;;
2022/04/15 00:50:15;;;;;;;7.2;3.8;;;;;;;12.4;73.60449;941.7231;;;;
2022/04/15 00:52:46;;;;;;;7.1;4;;;;;;;12.41;73.73242;941.7447;;;;
2022/04/15 00:55:16;;;;;;;5.7;3.8;;;;;;;12.29;74.28711;941.7006;;;;
2022/04/15 00:57:41;;;;;;;7.1;3.9;;;;;;;12.3;74.25391;941.684;;;;
2022/04/15 01:00:07;;;;;;;7.4;3.4;;;;;;;12.26;74.38574;941.6813;;;;
2022/04/15 01:02:33;;;;;;;6.4;3.6;;;;;;;12.08;75.22363;941.7097;;;;
2022/04/15 01:05:03;;;;;;;6;3.3;;;;;;;11.99;76.10352;941.7805;;;;
2022/04/15 01:07:28;;;;;;;6.6;3.2;;;;;;;11.97;76.13281;941.7141;;;;
2022/04/15 01:09:54;;;;;;;7.2;3.3;;;;;;;12.11;75.62012;941.7475;;;;
2022/04/15 01:12:18;;;;;;;5.3;3.4;;;;;;;12.23;74.86035;941.7823;;;;
2022/04/15 01:14:45;;;;;;;6.7;3.5;;;;;;;12.19;75.23145;941.8344;;;;
2022/04/15 01:17:22;;;;;;;6.1;3.5;;;;;;;12.22;75.4082;941.8701;;;;
2022/04/15 01:19:44;;;;;;;7.1;4.1;;;;;;;12.28;75.16797;941.8865;;;;
2022/04/15 01:22:09;;;;;;;5.1;3.3;;;;;;;12.29;75.18164;941.9059;;;;
2022/04/15 01:25:01;;;;;;;6;3.3;;;;;;;12.31;74.9668;941.8781;;;;
2022/04/15 01:27:26;;;;;;;6.6;3.8;;;;;;;12.24;75.03418;941.9255;;;;
2022/04/15 01:29:52;;;;;;;7.1;3.7;;;;;;;12.24;75.01172;941.9565;;;;
2022/04/15 01:32:21;;;;;;;6.1;3.9;;;;;;;12.12;75.59863;941.9208;;;;
2022/04/15 01:34:46;;;;;;;6.1;3.5;;;;;;;12.03;76.06348;941.9048;;;;
2022/04/15 01:37:16;;;;;;;6.7;3.5;;;;;;;12.15;75.5918;941.9227;;;;
2022/04/15 01:39:41;;;;;;;6.8;3.7;;;;;;;12.12;75.70117;942.0006;;;;
2022/04/15 01:42:10;;;;;;;6.7;3.5;;;;;;;12.15;75.52246;942.0121;;;;
2022/04/15 01:44:35;;;;;;;5.2;3.2;;;;;;;12.33;74.82031;942.0259;;;;
2022/04/15 01:47:05;;;;;;;4.8;3.6;;;;;;;12.36;74.88379;942.1085;;;;
2022/04/15 01:49:31;;;;;;;7.1;3.5;;;;;;;12.29;74.91797;942.0441;;;;
2022/04/15 01:52:01;;;;;;;7.4;3.5;;;;;;;12.41;74.77539;942.0722;;;;
2022/04/15 01:54:27;;;;;;;7.9;3.5;;;;;;;12.47;74.16699;942.0059;;;;
2022/04/15 01:56:51;;;;;;;6.5;3.4;;;;;;;12.31;74.69141;941.8861;;;;
2022/04/15 01:59:17;;;;;;;7.1;3.8;;;;;;;12.45;74.42773;941.8699;;;;
2022/04/15 02:01:42;;;;;;;5.6;3.4;;;;;;;12.4;73.97266;941.8564;;;;
2022/04/15 02:04:09;;;;;;;7.4;3.2;;;;;;;12.3;74.39063;941.8596;;;;
2022/04/15 02:06:34;;;;;;;6.1;3.5;;;;;;;12.27;74.47754;941.9233;;;;
2022/04/15 02:09:46;;;;;;;5.8;3.5;;;;;;;12.24;74.79395;941.9813;;;;
2022/04/15 02:12:14;;;;;;;6.7;3.7;;;;;;;12.02;76.00488;942.0133;;;;
2022/04/15 02:14:39;;;;;;;8.4;3.8;;;;;;;12.08;76.00488;942.0363;;;;
2022/04/15 02:17:07;;;;;;;5.9;3.7;;;;;;;12.04;75.92773;942.067;;;;
2022/04/15 02:19:32;;;;;;;6.4;3.6;;;;;;;12.1;75.55957;942.0762;;;;
2022/04/15 02:21:57;;;;;;;6.6;3.8;;;;;;;12.15;75.3623;942.052;;;;
2022/04/15 02:24:23;;;;;;;5.5;3.5;;;;;;;12.23;74.99707;942.0682;;;;
2022/04/15 02:26:50;;;;;;;5.2;3.4;;;;;;;12.18;75.27539;941.9821;;;;
2022/04/15 02:29:15;;;;;;;5.4;3.6;;;;;;;12.16;75.43262;942.0393;;;;
2022/04/15 02:31:42;;;;;;;5.3;3.9;;;;;;;12.19;75.62109;942.058;;;;
2022/04/15 02:34:07;;;;;;;6.3;4;;;;;;;12.23;75.7666;942.0658;;;;
2022/04/15 02:36:35;;;;;;;5.6;4;;;;;;;12.29;75.70898;942.0759;;;;
2022/04/15 02:39:00;;;;;;;6.7;4.3;;;;;;;12.36;75.27246;942.1125;;;;
2022/04/15 02:41:28;;;;;;;6.1;4;;;;;;;12.37;75.35449;942.1637;;;;
2022/04/15 02:43:54;;;;;;;5.4;3.9;;;;;;;12.32;75.30078;942.144;;;;
2022/04/15 02:46:19;;;;;;;7;3.7;;;;;;;12.31;75.08105;942.1144;;;;
2022/04/15 02:48:47;;;;;;;6.8;3.4;;;;;;;12.29;75.22754;942.1981;;;;
2022/04/15 02:51:14;;;;;;;7.5;3.8;;;;;;;12.24;75.16016;942.2424;;;;
2022/04/15 02:53:42;;;;;;;6.4;3.5;;;;;;;12.09;75.69531;942.2494;;;;
2022/04/15 02:56:10;;;;;;;4;3.3;;;;;;;12.14;75.70508;942.2811;;;;
2022/04/15 02:58:35;;;;;;;6.1;3.6;;;;;;;12.18;75.66699;942.2336;;;;
2022/04/15 03:01:03;;;;;;;6.7;3.8;;;;;;;12.28;75.80859;942.1828;;;;
2022/04/15 03:03:30;;;;;;;6.2;3.8;;;;;;;12.37;75.2627;942.2404;;;;
2022/04/15 03:05:58;;;;;;;8.9;3.9;;;;;;;12.49;75.27246;942.2392;;;;
2022/04/15 03:08:30;;;;;;;5.8;3.7;;;;;;;12.51;75.03516;942.257;;;;
2022/04/15 03:11:00;;;;;;;6;3.8;;;;;;;12.56;75.60645;942.1839;;;;
2022/04/15 03:13:23;;;;;;;8.6;4.2;;;;;;;12.62;75.62793;942.2861;;;;
2022/04/15 03:15:55;;;;;;;7.3;4.1;;;;;;;12.65;74.72559;942.2392;;;;
2022/04/15 03:18:26;;;;;;;7;4;;;;;;;12.53;74.54492;942.2692;;;;
2022/04/15 03:20:57;;;;;;;7.4;3.7;;;;;;;12.39;75.25391;942.278;;;;
2022/04/15 03:23:27;;;;;;;6.3;3.8;;;;;;;12.18;75.95313;942.1856;;;;
2022/04/15 03:25:52;;;;;;;8.9;4.2;;;;;;;12.21;76.24316;942.2258;;;;
2022/04/15 03:28:20;;;;;;;6;3.8;;;;;;;12.25;76.58203;942.2424;;;;
2022/04/15 03:30:50;;;;;;;6.1;4.2;;;;;;;12.37;77.44141;942.2068;;;;
2022/04/15 03:33:15;;;;;;;9.1;4.4;;;;;;;12.48;77.91895;942.228;;;;
2022/04/15 03:35:45;;;;;;;7.4;4.4;;;;;;;12.54;78.72363;942.2484;;;;
2022/04/15 03:38:16;;;;;;;8;4.4;;;;;;;12.57;78.91211;942.1904;;;;
2022/04/15 03:40:46;;;;;;;7.8;4.4;;;;;;;12.54;78.8252;942.0783;;;;
2022/04/15 03:43:11;;;;;;;8;4.8;;;;;;;12.48;79.28418;942.1145;;;;
2022/04/15 03:45:40;;;;;;;5.9;4;;;;;;;12.43;79.96582;942.1422;;;;
2022/04/15 03:48:05;;;;;;;5.9;4.3;;;;;;;12.31;80.88184;942.1839;;;;
2022/04/15 03:50:34;;;;;;;7.4;4.9;;;;;;;12.32;81.08984;942.1369;;;;
2022/04/15 03:52:59;;;;;;;6.7;4.5;;;;;;;12.27;81.6875;942.15;;;;
2022/04/15 03:55:29;;;;;;;6.2;4.4;;;;;;;12.11;82.12695;942.141;;;;
2022/04/15 03:57:56;;;;;;;7.3;4.9;;;;;;;12.08;82.23633;942.0657;;;;
2022/04/15 04:02:40;;;;;;;7;4.5;;;;;;;11.91;83.62402;942.0653;;;;
2022/04/15 04:05:07;;;;;;;7.8;4.8;;;;;;;11.93;83.9502;942.1685;;;;
2022/04/15 04:07:30;;;;;;;9;4.9;;;;;;;11.9;84.24121;942.192;;;;
2022/04/15 04:09:57;;;;;;;7.5;5.3;;;;;;;11.84;85.12402;942.1373;;;;
2022/04/15 04:12:22;;;;;;;7.4;5.1;;;;;;;11.67;86.14355;942.1827;;;;
2022/04/15 04:14:48;;;;;;;7.7;5.5;;;;;;;11.47;87.53223;942.176;;;;
2022/04/15 04:17:13;;;;;;;7.1;5.5;;;;;;;11.53;87.32715;942.1511;;;;
2022/04/15 04:19:38;;;;;;;9.1;5.3;;;;;;;11.7;86.77832;942.1917;;;;
2022/04/15 04:22:08;;;;;;;8.6;5.6;;;;;;;11.75;87.00684;942.2122;;;;
2022/04/15 04:24:33;;;;;;;8.7;5.8;;;;;;;11.8;86.52539;942.1596;;;;
2022/04/15 04:26:58;;;;;;;8.9;6;;;;;;;11.94;85.7832;942.1694;;;;
2022/04/15 04:29:26;;;;;;;8.9;6.3;;;;;;;11.87;87.00684;942.2573;;;;
2022/04/15 04:31:51;;;;;;;8.1;6.2;;;;;;;11.82;87.30762;942.2535;;;;
2022/04/15 04:35:15;;;;;;;9.7;6.5;;;;;;;11.83;87.27441;942.2903;;;;
2022/04/15 04:37:40;;;;;;;7.1;5.7;;;;;;;11.57;88.20801;942.3248;;;;
2022/04/15 04:40:12;;;;;;;8.8;6;;;;;;;11.62;88.32031;942.3423;;;;
2022/04/15 04:42:37;;;;;;;6.2;5.4;;;;;;;11.74;87.43848;942.327;;;;
2022/04/15 04:45:10;;;;;;;7.3;5.6;;;;;;;11.8;86.48926;942.3287;;;;
2022/04/15 04:47:36;;;;;;;8.9;5.8;;;;;;;11.91;85.73145;942.3517;;;;
2022/04/15 04:50:01;;;;;;;7.4;5.6;;;;;;;11.97;85.43457;942.3812;;;;
2022/04/15 04:52:34;;;;;;;9.7;5.6;;;;;;;12.04;85.24121;942.3901;;;;
2022/04/15 04:55:03;;;;;;;7.6;5.3;;;;;;;12.12;85.24707;942.4253;;;;
2022/04/15 04:57:28;;;;;;;8.7;5.5;;;;;;;12.03;85.12695;942.4492;;;;
2022/04/15 04:59:56;;;;;;;8.8;5.7;;;;;;;12;85.43066;942.4486;;;;
2022/04/15 05:02:19;;;;;;;7.3;5.3;;;;;;;11.94;85.14355;942.4863;;;;
2022/04/15 05:04:49;;;;;;;7.7;5.1;;;;;;;11.85;85.49414;942.4517;;;;
2022/04/15 05:15:12;;;;;;;8.4;5.7;;;;;;;12.25;83.67871;942.6728;;;;
2022/04/15 05:17:49;;;;;;;8.5;5.5;;;;;;;12.34;83.31836;942.7807;;;;
2022/04/15 05:20:19;;;;;;;7.3;5.5;;;;;;;12.32;84.08105;942.8508;;;;
2022/04/15 05:22:44;;;;;;;10;5.5;;;;;;;12.2;85.48145;942.9139;;;;
2022/04/15 05:25:14;;;;;;;10.9;5.4;;;;;;;12.37;84.0918;942.8505;;;;
2022/04/15 05:27:45;;;;;;;7.9;5.4;;;;;;;12.39;83.75098;942.7715;;;;
2022/04/15 05:30:15;;;;;;;10.4;5.8;;;;;;;12.33;84.25781;942.827;;;;
2022/04/15 05:32:45;;;;;;;10.6;6;;;;;;;12.39;85.11719;942.8762;;;;
2022/04/15 05:35:10;;;;;;;11.3;6.2;;;;;;;12.32;86.30664;942.858;;;;
2022/04/15 05:43:33;;;;;;;9.6;7.2;;;;;;;12.34;88.90137;942.8303;;;;
2022/04/15 05:46:04;;;;;;;9.2;7.1;;;;;;;12.28;88.78516;942.8983;;;;
2022/04/15 05:48:29;;;;;;;8.9;6.5;;;;;;;12.45;88.10938;942.9434;;;;
2022/04/15 05:57:23;;;;;;;8.8;6.3;;;;;;;12.74;87.03418;942.9448;;;;
2022/04/15 06:00:09;;;;;;;8.3;6.4;;;;;;;12.83;86.39551;942.9833;;;;
2022/04/15 06:02:34;;;;;;;10.3;7.1;;;;;;;12.92;86.24316;942.9977;;;;
2022/04/15 06:05:03;;;;;;;8;6.5;;;;;;;13.03;86.0332;942.9532;;;;
2022/04/15 06:07:28;;;;;;;9.4;6.8;;;;;;;13.13;84.79102;943.0083;;;;
2022/04/15 06:09:58;;;;;;;8.6;6.1;;;;;;;13.16;85.16211;942.9774;;;;
2022/04/15 06:12:25;;;;;;;8;6.2;;;;;;;;;;;;;
2022/04/15 06:14:49;;;;;;;8.3;6.4;;;;;;;;;;;;;
2022/04/15 06:17:13;;;;;;;10;6.5;;;;;;;;;;;;;
2022/04/15 06:19:38;;;;;;;8.6;6.8;;;;;;;;;;;;;
2022/04/15 06:22:03;;;;;;;9.4;7.1;;;;;;;;;;;;;
2022/04/15 06:24:29;;;;;;;8.8;6.9;;;;;;;;;;;;;
2022/04/15 06:26:54;;;;;;;9.2;6.8;;;;;;;;;;;;;
2022/04/15 06:29:20;;;;;;;10.7;7.8;;;;;;;;;;;;;
2022/04/15 06:31:46;;;;;;;12.1;8.3;;;;;;;;;;;;;
2022/04/15 06:34:10;;;;;;;11.8;8.4;;;;;;;;;;;;;
2022/04/15 06:36:35;;;;;;;11.3;7.8;;;;;;;;;;;;;
2022/04/15 06:39:01;;;;;;;9.5;7.6;;;;;;;;;;;;;
2022/04/15 06:41:26;;;;;;;14.2;8.2;;;;;;;;;;;;;
2022/04/15 06:43:53;;;;;;;11.8;7.6;;;;;;;;;;;;;
2022/04/15 06:46:18;;;;;;;10.4;7.2;;;;;;;;;;;;;
2022/04/15 06:48:44;;;;;;;9.5;7.1;;;;;;;;;;;;;
2022/04/15 06:51:09;;;;;;;12.4;7.1;;;;;;;;;;;;;
2022/04/15 06:53:34;;;;;;;9.2;7.3;;;;;;;;;;;;;
2022/04/15 06:56:00;;;;;;;9.3;7;;;;;;;;;;;;;
2022/04/15 06:58:25;;;;;;;11.3;7.6;;;;;;;;;;;;;
2022/04/15 07:00:52;;;;;;;12.3;7.6;;;;;;;;;;;;;
2022/04/15 07:03:16;;;;;;;10.7;8.1;;;;;;;;;;;;;
2022/04/15 07:05:41;;;;;;;10.9;8.2;;;;;;;;;;;;;
2022/04/15 07:08:09;;;;;;;11.4;8;;;;;;;;;;;;;
2022/04/15 07:10:33;;;;;;;9.4;8;;;;;;;;;;;;;
2022/04/15 07:12:59;;;;;;;11.3;8.2;;;;;;;;;;;;;
2022/04/15 07:15:25;;;;;;;12.2;8.7;;;;;;;;;;;;;
2022/04/15 07:17:50;;;;;;;16.1;10.1;;;;;;;;;;;;;
2022/04/15 07:20:15;;;;;;;14.4;10.7;;;;;;;;;;;;;
2022/04/15 07:22:41;;;;;;;14.8;10.9;;;;;;;;;;;;;
2022/04/15 07:25:06;;;;;;;14.3;11.2;;;;;;;;;;;;;
2022/04/15 07:27:33;;;;;;;14.8;12.1;;;;;;;;;;;;;
2022/04/15 07:29:58;;;;;;;14;10.8;;;;;;;;;;;;;
2022/04/15 07:32:27;;;;;;;13.2;10.5;;;;;;;;;;;;;
2022/04/15 07:34:50;;;;;;;17;11.7;;;;;;;;;;;;;
2022/04/15 07:37:16;;;;;;;15.4;11.3;;;;;;;;;;;;;
2022/04/15 07:39:41;;;;;;;14.6;11.8;;;;;;;;;;;;;
2022/04/15 07:42:07;;;;;;;14.7;10.8;;;;;;;;;;;;;
2022/04/15 07:44:32;;;;;;;15.4;10.9;;;;;;;;;;;;;
2022/04/15 07:46:59;;;;;;;12.5;10.4;;;;;;;;;;;;;
2022/04/15 07:49:23;;;;;;;13.7;10.6;;;;;;;;;;;;;
2022/04/15 07:51:49;;;;;;;14.3;11.2;;;;;;;;;;;;;
2022/04/15 07:54:14;;;;;;;13.2;10.9;;;;;;;;;;;;;
2022/04/15 07:56:39;;;;;;;13.8;11.2;;;;;;;;;;;;;
2022/04/15 07:59:04;;;;;;;14.2;10.7;;;;;;;;;;;;;
2022/04/15 08:01:30;;;;;;;13.3;9.5;;;;;;;;;;;;;
2022/04/15 08:03:55;;;;;;;13.7;10.8;;;;;;;;;;;;;
2022/04/15 08:06:21;;;;;;;13.9;10.4;;;;;;;;;;;;;
2022/04/15 08:08:46;;;;;;;11.4;10.1;;;;;;;;;;;;;
2022/04/15 08:11:11;;;;;;;12.7;10;;;;;;;;;;;;;
2022/04/15 08:13:36;;;;;;;11.6;8.9;;;;;;;;;;;;;
2022/04/15 08:16:03;;;;;;;12.3;9.1;;;;;;;;;;;;;
2022/04/15 08:18:28;;;;;;;12;10.2;;;;;;;;;;;;;
2022/04/15 08:20:55;;;;;;;10.4;8.7;;;;;;;;;;;;;
2022/04/15 08:23:21;;;;;;;12.1;9.8;;;;;;;;;;;;;
2022/04/15 08:25:46;;;;;;;13.1;9.9;;;;;;;;;;;;;
2022/04/15 08:28:12;;;;;;;12.9;10.3;;;;;;;;;;;;;
2022/04/15 08:30:37;;;;;;;14.8;11.2;;;;;;;;;;;;;
2022/04/15 08:33:05;;;;;;;13.2;10.8;;;;;;;;;;;;;
2022/04/15 08:35:29;;;;;;;13.6;10.8;;;;;;;;;;;;;
2022/04/15 08:37:54;;;;;;;18.5;11.3;;;;;;;;;;;;;
2022/04/15 08:40:19;;;;;;;12.1;10.4;;;;;;;;;;;;;
2022/04/15 08:42:44;;;;;;;15.4;11.2;;;;;;;;;;;;;
2022/04/15 08:45:14;;;;;;;14;11.2;;;;;;;;;;;;;
2022/04/15 08:47:39;;;;;;;14.2;11.1;;;;;;;;;;;;;
2022/04/15 08:50:05;;;;;;;15.2;11.5;;;;;;;;;;;;;
2022/04/15 08:52:29;;;;;;;13.6;11.5;;;;;;;;;;;;;
2022/04/15 08:54:55;;;;;;;14.8;11.2;;;;;;;;;;;;;
2022/04/15 08:57:20;;;;;;;14.9;11.3;;;;;;;;;;;;;
2022/04/15 08:59:47;;;;;;;13.3;11.7;;;;;;;;;;;;;
2022/04/15 09:02:14;;;;;;;14.6;13;;;;;;;;;;;;;
2022/04/15 09:04:37;;;;;;;15;12.2;;;;;;;;;;;;;
2022/04/15 09:07:02;;;;;;;16.4;12.3;;;;;;;;;;;;;
2022/04/15 09:09:29;;;;;;;14.5;11.7;;;;;;;;;;;;;
2022/04/15 09:11:52;;;;;;;15.4;13.3;;;;;;;;;;;;;
2022/04/15 09:14:18;;;;;;;14.9;12.7;;;;;;;;;;;;;
2022/04/15 09:16:44;;;;;;;14.8;12.8;;;;;;;;;;;;;
2022/04/15 09:19:09;;;;;;;14;12.3;;;;;;;;;;;;;
2022/04/15 09:21:35;;;;;;;15;13;;;;;;;;;;;;;
2022/04/15 09:24:00;;;;;;;13.8;12.4;;;;;;;;;;;;;
2022/04/15 09:26:27;;;;;;;14;12.5;;;;;;;;;;;;;
2022/04/15 09:28:53;;;;;;;14.3;12.5;;;;;;;;;;;;;
2022/04/15 09:31:18;;;;;;;15.5;12.8;;;;;;;;;;;;;
2022/04/15 09:33:43;;;;;;;14.7;13.1;;;;;;;;;;;;;
2022/04/15 09:36:08;;;;;;;15;13.1;;;;;;;;;;;;;
2022/04/15 09:38:33;;;;;;;16.9;13.7;;;;;;;;;;;;;
2022/04/15 09:41:01;;;;;;;17.7;13.8;;;;;;;;;;;;;
2022/04/15 09:43:26;;;;;;;14.7;13.1;;;;;;;;;;;;;
2022/04/15 09:45:51;;;;;;;15;12.8;;;;;;;;;;;;;
2022/04/15 09:48:16;;;;;;;16.5;13.8;;;;;;;;;;;;;
2022/04/15 09:50:45;;;;;;;15;13.4;;;;;;;;;;;;;
2022/04/15 09:53:12;;;;;;;15.5;13.8;;;;;;;;;;;;;
2022/04/15 09:55:39;;;;;;;15.9;13.3;;;;;;;;;;;;;
2022/04/15 09:58:05;;;;;;;16.6;13.8;;;;;;;;;;;;;
2022/04/15 10:00:30;;;;;;;15.9;14;;;;;;;;;;;;;
2022/04/15 10:02:57;;;;;;;17.4;14.1;;;;;;;;;;;;;
2022/04/15 10:05:22;;;;;;;17.1;14.5;;;;;;;;;;;;;
2022/04/15 10:07:47;;;;;;;16.9;14.1;;;;;;;;;;;;;
2022/04/15 10:10:12;;;;;;;18.4;14.9;;;;;;;;;;;;;
2022/04/15 10:12:39;;;;;;;15.6;13.5;;;;;;;;;;;;;
2022/04/15 10:15:04;;;;;;;18.1;14.7;;;;;;;;;;;;;
2022/04/15 10:17:31;;;;;;;17.5;14.6;;;;;;;;;;;;;
2022/04/15 10:19:56;;;;;;;18.1;14.7;;;;;;;;;;;;;
2022/04/15 10:22:22;;;;;;;18.2;14.8;;;;;;;;;;;;;
2022/04/15 10:24:47;;;;;;;18;14.9;;;;;;;;;;;;;
2022/04/15 10:27:14;;;;;;;18.6;15.1;;;;;;;;;;;;;
2022/04/15 10:29:39;;;;;;;16.5;14.6;;;;;;;;;;;;;
2022/04/15 10:32:06;;;;;;;16.8;14.1;;;;;;;;;;;;;
2022/04/15 10:34:31;;;;;;;16.4;13.9;;;;;;;;;;;;;
2022/04/15 10:36:58;;;;;;;18.3;14.8;;;;;;;;;;;;;
2022/04/15 10:39:23;;;;;;;17.5;15;;;;;;;;;;;;;
2022/04/15 10:41:51;;;;;;;16.9;14.7;;;;;;;;;;;;;
2022/04/15 10:44:15;;;;;;;18;15.6;;;;;;;;;;;;;
2022/04/15 10:46:40;;;;;;;20.7;16.8;;;;;;;;;;;;;
2022/04/15 10:49:05;;;;;;;19.9;17;;;;;;;;;;;;;
2022/04/15 10:51:31;;;;;;;19.3;16.5;;;;;;;;;;;;;
2022/04/15 10:53:56;;;;;;;20.2;16.1;;;;;;;;;;;;;
2022/04/15 10:56:24;;;;;;;19.8;15.6;;;;;;;;;;;;;
2022/04/15 11:01:13;;;;;;;19.3;15.6;;;;;;;;;;;;;
2022/04/15 11:01:16;;;;;;;18.6;15;;;;;;;;;;;;;
2022/04/15 11:03:38;;;;;;;18.6;14.9;;;;;;;;;;;;;
2022/04/15 11:06:04;;;;;;;17.2;14.7;;;;;;;;;;;;;
2022/04/15 11:08:29;;;;;;;17.6;14.9;;;;;;;;;;;;;
2022/04/15 11:10:55;;;;;;;18;15.1;;;;;;;;;;;;;
2022/04/15 11:13:21;;;;;;;17.3;14.9;;;;;;;;;;;;;
2022/04/15 11:15:46;;;;;;;18.3;15;;;;;;;;;;;;;
2022/04/15 11:18:12;;;;;;;17.6;14.9;;;;;;;;;;;;;
2022/04/15 11:20:37;;;;;;;17.5;14.8;;;;;;;;;;;;;
2022/04/15 11:23:04;;;;;;;18.4;13.6;;;;;;;;;;;;;
2022/04/15 11:25:30;;;;;;;19.4;13.6;;;;;;;;;;;;;
2022/04/15 11:27:56;;;;;;;16.7;13.3;;;;;;;;;;;;;
2022/04/15 11:30:21;;;;;;;15.4;13.8;;;;;;;;;;;;;
2022/04/15 11:32:47;;;;;;;14.6;12.7;;;;;;;;;;;;;
2022/04/15 11:35:13;;;;;;;17.2;12.3;;;;;;;;;;;;;
2022/04/15 11:37:38;;;;;;;16.8;13.2;;;;;;;;;;;;;
2022/04/15 11:40:05;;;;;;;15.7;12.6;;;;;;;;;;;;;
2022/04/15 11:42:31;;;;;;;15.2;12.8;;;;;;;;;;;;;
2022/04/15 11:44:56;;;;;;;16.4;12.8;;;;;;;;;;;;;
2022/04/15 11:47:24;;;;;;;13.7;11.3;;;;;;;;;;;;;
2022/04/15 11:49:46;;;;;;;16;13.2;;;;;;;;;;;;;
2022/04/15 11:52:11;;;;;;;15;11.9;;;;;;;;;;;;;
2022/04/15 11:54:38;;;;;;;15.2;11.1;;;;;;;;;;;;;
2022/04/15 11:57:03;;;;;;;14.5;11.2;;;;;;;;;;;;;
2022/04/15 11:59:27;;;;;;;14.4;12;;;;;;;;;;;;;
2022/04/15 12:01:55;;;;;;;16.8;12.1;;;;;;;;;;;;;
2022/04/15 12:04:20;;;;;;;12.2;10.3;;;;;;;;;;;;;
2022/04/15 12:06:46;;;;;;;17.5;11.7;;;;;;;;;;;;;
2022/04/15 12:09:11;;;;;;;14.2;11;;;;;;;;;;;;;
2022/04/15 12:11:37;;;;;;;13.3;10.8;;;;;;;;;;;;;
2022/04/15 12:14:02;;;;;;;14.3;10.2;;;;;;;;;;;;;
2022/04/15 12:16:28;;;;;;;13.8;10.3;;;;;;;;;;;;;
2022/04/15 12:18:53;;;;;;;10.9;9.6;;;;;;;;;;;;;
2022/04/15 12:21:19;;;;;;;12.8;10.1;;;;;;;;;;;;;
2022/04/15 12:23:44;;;;;;;11.4;9.4;;;;;;;;;;;;;
2022/04/15 12:26:09;;;;;;;14.6;9.7;;;;;;;;;;;;;
2022/04/15 12:31:00;;;;;;;12.5;9.4;;;;;;;;;;;;;
2022/04/15 12:33:26;;;;;;;11.3;9.4;;;;;;;;;;;;;
2022/04/15 12:35:51;;;;;;;11.6;9;;;;;;;;;;;;;
2022/04/15 12:38:18;;;;;;;11.8;9.5;;;;;;;;;;;;;
2022/04/15 12:40:43;;;;;;;11.4;9;;;;;;;;;;;;;
2022/04/15 12:43:08;;;;;;;10.1;8.3;;;;;;;;;;;;;
2022/04/15 12:45:35;;;;;;;11.1;7.4;;;;;;;;;;;;;
2022/04/15 12:48:00;;;;;;;9.6;7.9;;;;;;;;;;;;;
2022/04/15 12:50:25;;;;;;;11;8.2;;;;;;;;;;;;;
2022/04/15 12:52:50;;;;;;;11.3;8.1;;;;;;;;;;;;;
2022/04/15 12:55:15;;;;;;;9.4;7.7;;;;;;;;;;;;;
2022/04/15 12:57:43;;;;;;;12.7;7.7;;;;;;;;;;;;;
2022/04/15 13:00:07;;;;;;;11.8;8.7;;;;;;;;;;;;;
2022/04/15 13:02:35;;;;;;;9.5;8.5;;;;;;;;;;;;;
2022/04/15 13:05:00;;;;;;;10.5;8.6;;;;;;;;;;;;;
2022/04/15 13:07:27;;;;;;;12;8.9;;;;;;;;;;;;;
2022/04/15 13:09:52;;;;;;;10.5;9;;;;;;;;;;;;;
2022/04/15 13:12:17;;;;;;;12.2;8.3;;;;;;;;;;;;;
2022/04/15 13:14:42;;;;;;;9;7.7;;;;;;;;;;;;;
2022/04/15 13:17:08;;;;;;;12;8.4;;;;;;;;;;;;;
2022/04/15 13:19:35;;;;;;;11.1;7.7;;;;;;;;;;;;;
2022/04/15 13:22:00;;;;;;;10.6;8;;;;;;;;;;;;;
2022/04/15 13:24:25;;;;;;;10;7.4;;;;;;;;;;;;;
2022/04/15 13:26:52;;;;;;;8.7;7.2;;;;;;;;;;;;;
2022/04/15 13:29:17;;;;;;;9.9;7;;;;;;;;;;;;;
2022/04/15 13:31:43;;;;;;;9.1;7.5;;;;;;;;;;;;;
2022/04/15 13:34:08;;;;;;;10.9;7.3;;;;;;;;;;;;;
2022/04/15 13:36:34;;;;;;;8.7;6.7;;;;;;;;;;;;;
2022/04/15 13:38:59;;;;;;;8.8;6.8;;;;;;;;;;;;;
2022/04/15 13:41:28;;;;;;;8.1;6.6;;;;;;;;;;;;;
2022/04/15 13:43:53;;;;;;;7.5;6.5;;;;;;;;;;;;;
2022/04/15 13:46:19;;;;;;;10.4;6.9;;;;;;;;;;;;;
2022/04/15 13:48:44;;;;;;;9.4;6.9;;;;;;;;;;;;;
2022/04/15 13:51:09;;;;;;;9.3;7.1;;;;;;;;;;;;;
2022/04/15 13:58:25;;;;;;;9.7;6;;;;;;;;;;;;;
2022/04/15 14:00:51;;;;;;;7.8;5.6;;;;;;;;;;;;;
2022/04/15 14:03:16;;;;;;;8.9;5.6;;;;;;;;;;;;;
2022/04/15 14:05:43;;;;;;;8.1;5.5;;;;;;;;;;;;;
2022/04/15 14:08:08;;;;;;;10.1;6.8;;;;;;;;;;;;;
2022/04/15 14:10:34;;;;;;;10.1;6.7;;;;;;;;;;;;;
2022/04/15 14:13:01;;;;;;;17.4;7.2;;;;;;;;;;;;;
2022/04/15 14:15:26;;;;;;;9.3;7.5;;;;;;;;;;;;;
2022/04/15 14:17:55;;;;;;;10.8;8.6;;;;;;;;;;;;;
2022/04/15 14:20:17;;;;;;;11;8.6;;;;;;;;;;;;;
2022/04/15 14:22:44;;;;;;;9.8;8.2;;;;;;;;;;;;;
2022/04/15 14:25:09;;;;;;;10.3;8.3;;;;;;;;;;;;;
2022/04/15 14:27:34;;;;;;;9.6;8;;;;;;;;;;;;;
2022/04/15 14:29:59;;;;;;;10.3;8.4;;;;;;;;;;;;;
2022/04/15 14:32:26;;;;;;;9.7;8.2;;;;;;;;;;;;;
2022/04/15 14:34:54;;;;;;;11.6;8.5;;;;;;;;;;;;;
2022/04/15 14:37:16;;;;;;;9.5;7.9;;;;;;;;;;;;;
2022/04/15 14:39:42;;;;;;;10.4;8.9;;;;;;;;;;;;;
2022/04/15 14:42:07;;;;;;;11.2;8;;;;;;;;;;;;;
2022/04/15 14:44:34;;;;;;;12.6;7.8;;;;;;;;;;;;;
2022/04/15 14:46:59;;;;;;;9.2;7.8;;;;;;;;;;;;;
2022/04/15 14:49:24;;;;;;;10.1;7.6;;;;;;;;;;;;;
2022/04/15 14:51:49;;;;;;;8.1;7;;;;;;;;;;;;;
2022/04/15 14:54:15;;;;;;;9.3;7.5;;;;;;;;;;;;;
2022/04/15 14:56:42;;;;;;;7.9;6.3;;;;;;;;;;;;;
2022/04/15 14:59:06;;;;;;;8.5;7.1;;;;;;;;;;;;;
2022/04/15 15:01:32;;;;;;;8.3;6.4;;;;;;;;;;;;;
2022/04/15 15:03:58;;;;;;;8.1;6.8;;;;;;;;;;;;;
2022/04/15 15:06:23;;;;;;;7.4;6;;;;;;;;;;;;;
2022/04/15 15:08:50;;;;;;;6.2;5.6;;;;;;;;;;;;;
2022/04/15 15:11:14;;;;;;;8.1;5.5;;;;;;;;;;;;;
2022/04/15 15:13:40;;;;;;;8.1;5.3;;;;;;;;;;;;;
2022/04/15 15:16:06;;;;;;;7.6;5.4;;;;;;;;;;;;;
2022/04/15 15:18:30;;;;;;;6.9;5.2;;;;;;;;;;;;;
2022/04/15 15:20:56;;;;;;;6;5.4;;;;;;;;;;;;;
2022/04/15 15:23:22;;;;;;;7;5.3;;;;;;;;;;;;;
2022/04/15 15:30:38;;;;;;;6.4;5.1;;;;;;;;;;;;;
2022/04/15 15:33:06;;;;;;;7.1;5.5;;;;;;;;;;;;;
2022/04/15 15:35:30;;;;;;;7.1;5.1;;;;;;;;;;;;;
2022/04/15 15:37:57;;;;;;;8.6;5.6;;;;;;;;;;;;;
2022/04/15 15:40:23;;;;;;;6.4;5.3;;;;;;;;;;;;;
2022/04/15 15:42:49;;;;;;;6.1;5.3;;;;;;;;;;;;;
2022/04/15 15:45:13;;;;;;;5.8;4.6;;;;;;;;;;;;;
2022/04/15 15:47:40;;;;;;;7.7;5.1;;;;;;;;;;;;;
2022/04/15 15:50:06;;;;;;;6;5.2;;;;;;;;;;;;;
2022/04/15 15:52:31;;;;;;;6.6;4.8;;;;;;;;;;;;;
2022/04/15 15:54:56;;;;;;;6.7;5.4;;;;;;;;;;;;;
2022/04/15 15:57:22;;;;;;;5.1;4.6;;;;;;;;;;;;;
2022/04/15 15:59:47;;;;;;;5.5;4.3;;;;;;;;;;;;;
2022/04/15 16:02:14;;;;;;;7.9;5.8;;;;;;;;;;;;;
2022/04/15 16:04:39;;;;;;;7.6;6.7;;;;;;;;;;;;;
2022/04/15 16:07:04;;;;;;;6.3;5.1;;;;;;;;;;;;;
2022/04/15 16:09:30;;;;;;;4.4;3.9;;;;;;;;;;;;;
2022/04/15 16:11:55;;;;;;;5.1;4;;;;;;;;;;;;;
2022/04/15 16:14:20;;;;;;;11.5;7.2;;;;;;;;;;;;;
2022/04/15 16:16:45;;;;;;;15.8;9.6;;;;;;;;;;;;;
2022/04/15 16:19:10;;;;;;;13.3;7.4;;;;;;;;;;;;;
2022/04/15 16:21:36;;;;;;;11.2;7.4;;;;;;;;;;;;;
2022/04/15 16:24:01;;;;;;;10.5;6.9;;;;;;;;;;;;;
2022/04/15 16:26:26;;;;;;;9.4;6.8;;;;;;;;;;;;;
2022/04/15 16:28:52;;;;;;;11.4;7.6;;;;;;;;;;;;;
2022/04/15 16:31:17;;;;;;;6.5;4.2;;;;;;;;;;;;;
2022/04/15 16:33:45;;;;;;;6.4;4.1;;;;;;;;;;;;;
2022/04/15 16:36:10;;;;;;;7.6;4.6;;;;;;;;;;;;;
2022/04/15 16:38:36;;;;;;;19.3;11.7;;;;;;;;;;;;;
2022/04/15 16:41:01;;;;;;;15.6;10.3;;;;;;;;;;;;;
2022/04/15 16:43:27;;;;;;;6.8;5.6;;;;;;;;;;;;;
2022/04/15 16:45:52;;;;;;;6.5;4.5;;;;;;;;;;;;;
2022/04/15 16:48:19;;;;;;;5.2;4.5;;;;;;;;;;;;;
2022/04/15 16:50:44;;;;;;;7.3;4.5;;;;;;;;;;;;;
2022/04/15 16:53:09;;;;;;;5.2;3.8;;;;;;;;;;;;;
2022/04/15 17:00:25;;;;;;;24;13.8;;;;;;;;;;;;;
2022/04/15 17:02:56;;;;;;;9.8;6;;;;;;;;;;;;;
2022/04/15 17:05:19;;;;;;;11.5;6.7;;;;;;;;;;;;;
2022/04/15 17:07:46;;;;;;;7;4.8;;;;;;;;;;;;;
2022/04/15 17:10:11;;;;;;;8.7;5;;;;;;;;;;;;;
2022/04/15 17:12:37;;;;;;;6.8;5;;;;;;;;;;;;;
2022/04/15 17:15:02;;;;;;;15.8;7.2;;;;;;;;;;;;;
2022/04/15 17:17:30;;;;;;;7.6;6.5;;;;;;;;;;;;;
2022/04/15 17:19:55;;;;;;;11.7;6.9;;;;;;;;;;;;;
2022/04/15 17:22:21;;;;;;;10.5;7.9;;;;;;;;;;;;;
2022/04/15 17:24:45;;;;;;;13.6;8.6;;;;;;;;;;;;;
2022/04/15 17:27:11;;;;;;;7.1;6.1;;;;;;;;;;;;;
2022/04/15 17:29:36;;;;;;;7.9;6.2;;;;;;;;;;;;;
2022/04/15 17:32:02;;;;;;;6.7;4.9;;;;;;;;;;;;;
2022/04/15 17:34:27;;;;;;;6.5;5;;;;;;;;;;;;;
2022/04/15 17:36:52;;;;;;;7.5;5.7;;;;;;;;;;;;;
2022/04/15 17:39:18;;;;;;;6.3;5.3;;;;;;;;;;;;;
2022/04/15 17:41:45;;;;;;;8.9;6;;;;;;;;;;;;;
2022/04/15 17:44:11;;;;;;;5.5;4.9;;;;;;;;;;;;;
2022/04/15 17:46:35;;;;;;;6.4;5.1;;;;;;;;;;;;;
2022/04/15 17:49:00;;;;;;;9.3;5.6;;;;;;;;;;;;;
2022/04/15 17:51:27;;;;;;;8.3;5.7;;;;;;;;;;;;;
2022/04/15 17:53:52;;;;;;;7;5.1;;;;;;;;;;;;;
2022/04/15 17:56:18;;;;;;;7.9;5.6;;;;;;;;;;;;;
2022/04/15 17:58:43;;;;;;;7.4;5.4;;;;;;;;;;;;;
2022/04/15 18:01:10;;;;;;;9.4;7;;;;;;;;;;;;;
2022/04/15 18:03:35;;;;;;;8.7;7.2;;;;;;;;;;;;;
2022/04/15 18:06:02;;;;;;;15.7;9.4;;;;;;;;;;;;;
2022/04/15 18:08:27;;;;;;;6.9;4.8;;;;;;;;;;;;;
2022/04/15 18:10:52;;;;;;;6.2;5.2;;;;;;;;;;;;;
2022/04/15 18:13:17;;;;;;;8;4.2;;;;;;;;;;;;;
2022/04/15 18:15:46;;;;;;;7.4;5.2;;;;;;;;;;;;;
2022/04/15 18:18:11;;;;;;;6.5;5;;;;;;;;;;;;;
2022/04/15 18:20:36;;;;;;;6.6;5.3;;;;;;;;;;;;;
2022/04/15 18:23:01;;;;;;;9.6;6.3;;;;;;;;;;;;;
2022/04/15 18:25:28;;;;;;;7.8;6;;;;;;;;;;;;;
2022/04/15 18:27:53;;;;;;;7.3;5.8;;;;;;;;;;;;;
2022/04/15 18:30:18;;;;;;;11.4;6.3;;;;;;;;;;;;;
2022/04/15 18:32:43;;;;;;;9;5.4;;;;;;;;;;;;;
2022/04/15 18:35:11;;;;;;;7.2;5;;;;;;;;;;;;;